sensor_id;sensor_type;location;lat;lon;timestamp;pressure;altitude;pressure_sealevel;temperature;humidity
70589;BME280;58152;49.202;18.744;2022-07-06T00:02:00;97415.16;;;19.09;71.26
70589;BME280;58152;49.202;18.744;2022-07-06T00:04:25;97408.84;;;19.10;71.33
70589;BME280;58152;49.202;18.744;2022-07-06T00:06:51;97417.94;;;19.08;71.71
70589;BME280;58152;49.202;18.744;2022-07-06T00:09:17;97409.97;;;19.08;71.71
70589;BME280;58152;49.202;18.744;2022-07-06T00:11:42;97407.16;;;19.09;71.77
70589;BME280;58152;49.202;18.744;2022-07-06T00:14:08;97409.81;;;19.09;71.87
70589;BME280;58152;49.202;18.744;2022-07-06T00:16:33;97398.47;;;19.07;71.65
70589;BME280;58152;49.202;18.744;2022-07-06T00:18:59;97411.50;;;19.10;71.52
70589;BME280;58152;49.202;18.744;2022-07-06T00:21:24;97408.84;;;19.10;71.96
70589;BME280;58152;49.202;18.744;2022-07-06T00:23:50;97415.88;;;19.11;71.64
70589;BME280;58152;49.202;18.744;2022-07-06T00:26:18;97418.56;;;19.11;71.42
70589;BME280;58152;49.202;18.744;2022-07-06T00:28:43;97423.13;;;19.09;71.52
70589;BME280;58152;49.202;18.744;2022-07-06T00:31:09;97420.22;;;19.12;71.67
70589;BME280;58152;49.202;18.744;2022-07-06T00:33:35;97420.38;;;19.11;71.65
70589;BME280;58152;49.202;18.744;2022-07-06T00:36:00;97416.97;;;19.09;71.74
70589;BME280;58152;49.202;18.744;2022-07-06T00:38:26;97414.66;;;19.04;71.84
70589;BME280;58152;49.202;18.744;2022-07-06T00:40:51;97427.81;;;19.05;71.82
70589;BME280;58152;49.202;18.744;2022-07-06T00:43:17;97433.03;;;19.07;71.96
70589;BME280;58152;49.202;18.744;2022-07-06T00:45:42;97433.16;;;19.05;71.70
70589;BME280;58152;49.202;18.744;2022-07-06T00:48:09;97432.91;;;19.09;71.82
70589;BME280;58152;49.202;18.744;2022-07-06T00:50:35;97428.69;;;19.06;72.15
70589;BME280;58152;49.202;18.744;2022-07-06T00:53:05;97430.38;;;19.07;71.90
70589;BME280;58152;49.202;18.744;2022-07-06T00:55:36;97437.41;;;19.08;72.00
70589;BME280;58152;49.202;18.744;2022-07-06T00:58:04;97441.88;;;19.08;72.10
70589;BME280;58152;49.202;18.744;2022-07-06T01:00:31;97447.31;;;19.06;72.17
70589;BME280;58152;49.202;18.744;2022-07-06T01:02:57;97449.34;;;19.02;71.88
70589;BME280;58152;49.202;18.744;2022-07-06T01:05:23;97443.28;;;19.00;71.80
70589;BME280;58152;49.202;18.744;2022-07-06T01:07:51;97444.13;;;19.01;71.86
70589;BME280;58152;49.202;18.744;2022-07-06T01:10:20;97445.38;;;18.97;71.88
70589;BME280;58152;49.202;18.744;2022-07-06T01:12:47;97456.00;;;18.97;72.07
70589;BME280;58152;49.202;18.744;2022-07-06T01:15:19;97440.50;;;18.91;71.97
70589;BME280;58152;49.202;18.744;2022-07-06T01:17:46;97436.78;;;18.93;72.05
70589;BME280;58152;49.202;18.744;2022-07-06T01:20:13;97442.81;;;18.95;72.09
70589;BME280;58152;49.202;18.744;2022-07-06T01:22:39;97435.81;;;18.94;72.14
70589;BME280;58152;49.202;18.744;2022-07-06T01:25:06;97442.94;;;18.94;72.07
70589;BME280;58152;49.202;18.744;2022-07-06T01:27:35;97448.13;;;18.95;72.32
70589;BME280;58152;49.202;18.744;2022-07-06T01:30:09;97448.97;;;18.96;72.22
70589;BME280;58152;49.202;18.744;2022-07-06T01:32:35;97449.94;;;18.95;72.21
70589;BME280;58152;49.202;18.744;2022-07-06T01:35:05;97459.59;;;18.96;72.69
70589;BME280;58152;49.202;18.744;2022-07-06T01:37:31;97457.31;;;18.91;73.14
70589;BME280;58152;49.202;18.744;2022-07-06T01:40:04;97453.09;;;18.89;73.15
70589;BME280;58152;49.202;18.744;2022-07-06T01:42:30;97454.91;;;18.88;73.16
70589;BME280;58152;49.202;18.744;2022-07-06T01:44:55;97457.78;;;18.85;73.66
70589;BME280;58152;49.202;18.744;2022-07-06T01:47:21;97455.13;;;18.85;73.63
70589;BME280;58152;49.202;18.744;2022-07-06T01:49:47;97454.16;;;18.86;73.81
70589;BME280;58152;49.202;18.744;2022-07-06T01:52:13;97443.66;;;18.85;74.05
70589;BME280;58152;49.202;18.744;2022-07-06T01:54:38;97453.44;;;18.84;74.11
70589;BME280;58152;49.202;18.744;2022-07-06T01:57:04;97449.19;;;18.82;73.77
70589;BME280;58152;49.202;18.744;2022-07-06T01:59:29;97458.00;;;18.82;73.98
70589;BME280;58152;49.202;18.744;2022-07-06T02:01:55;97446.66;;;18.80;74.18
70589;BME280;58152;49.202;18.744;2022-07-06T02:04:21;97447.50;;;18.81;74.02
70589;BME280;58152;49.202;18.744;2022-07-06T02:06:47;97449.94;;;18.84;74.14
70589;BME280;58152;49.202;18.744;2022-07-06T02:09:12;97455.25;;;18.84;74.04
70589;BME280;58152;49.202;18.744;2022-07-06T02:11:38;97455.50;;;18.81;74.07
70589;BME280;58152;49.202;18.744;2022-07-06T02:14:03;97457.06;;;18.83;74.12
70589;BME280;58152;49.202;18.744;2022-07-06T02:16:29;97466.84;;;18.83;74.24
70589;BME280;58152;49.202;18.744;2022-07-06T02:18:54;97464.31;;;18.81;74.28
70589;BME280;58152;49.202;18.744;2022-07-06T02:21:20;97463.22;;;18.84;74.47
70589;BME280;58152;49.202;18.744;2022-07-06T02:23:46;97452.81;;;18.81;74.53
70589;BME280;58152;49.202;18.744;2022-07-06T02:26:11;97461.66;;;18.81;74.14
70589;BME280;58152;49.202;18.744;2022-07-06T02:28:40;97462.63;;;18.80;74.32
70589;BME280;58152;49.202;18.744;2022-07-06T02:31:05;97458.28;;;18.79;74.37
70589;BME280;58152;49.202;18.744;2022-07-06T02:33:31;97454.78;;;18.78;74.28
70589;BME280;58152;49.202;18.744;2022-07-06T02:35:56;97462.63;;;18.80;74.50
70589;BME280;58152;49.202;18.744;2022-07-06T02:38:21;97457.44;;;18.78;74.42
70589;BME280;58152;49.202;18.744;2022-07-06T02:40:47;97473.25;;;18.80;74.54
70589;BME280;58152;49.202;18.744;2022-07-06T02:43:13;97473.38;;;18.78;74.75
70589;BME280;58152;49.202;18.744;2022-07-06T02:45:39;97483.13;;;18.78;74.86
70589;BME280;58152;49.202;18.744;2022-07-06T02:48:04;97486.75;;;18.77;74.87
70589;BME280;58152;49.202;18.744;2022-07-06T02:50:30;97493.88;;;18.76;74.82
70589;BME280;58152;49.202;18.744;2022-07-06T02:52:55;97491.44;;;18.73;74.90
70589;BME280;58152;49.202;18.744;2022-07-06T02:55:21;97490.75;;;18.71;75.01
70589;BME280;58152;49.202;18.744;2022-07-06T02:57:46;97486.50;;;18.69;75.09
70589;BME280;58152;49.202;18.744;2022-07-06T03:00:13;97496.19;;;18.70;75.05
70589;BME280;58152;49.202;18.744;2022-07-06T03:02:38;97493.59;;;18.68;75.02
70589;BME280;58152;49.202;18.744;2022-07-06T03:05:05;97484.72;;;18.69;74.89
70589;BME280;58152;49.202;18.744;2022-07-06T03:07:30;97471.28;;;18.71;75.40
70589;BME280;58152;49.202;18.744;2022-07-06T03:09:56;97472.97;;;18.72;75.25
70589;BME280;58152;49.202;18.744;2022-07-06T03:12:21;97480.25;;;18.70;74.84
70589;BME280;58152;49.202;18.744;2022-07-06T03:14:47;97483.09;;;18.67;74.67
70589;BME280;58152;49.202;18.744;2022-07-06T03:17:12;97482.25;;;18.66;74.38
70589;BME280;58152;49.202;18.744;2022-07-06T03:19:38;97475.13;;;18.67;74.40
70589;BME280;58152;49.202;18.744;2022-07-06T03:22:04;97480.56;;;18.65;74.47
70589;BME280;58152;49.202;18.744;2022-07-06T03:24:29;97493.59;;;18.68;74.25
70589;BME280;58152;49.202;18.744;2022-07-06T03:26:55;97493.59;;;18.68;74.50
70589;BME280;58152;49.202;18.744;2022-07-06T03:29:20;97490.09;;;18.68;74.36
70589;BME280;58152;49.202;18.744;2022-07-06T03:31:46;97499.03;;;18.67;74.39
70589;BME280;58152;49.202;18.744;2022-07-06T03:34:12;97501.56;;;18.68;74.87
70589;BME280;58152;49.202;18.744;2022-07-06T03:36:37;97506.81;;;18.70;74.75
70589;BME280;58152;49.202;18.744;2022-07-06T03:39:03;97498.91;;;18.68;74.63
70589;BME280;58152;49.202;18.744;2022-07-06T03:41:28;97496.38;;;18.67;74.57
70589;BME280;58152;49.202;18.744;2022-07-06T03:43:54;97504.34;;;18.67;74.80
70589;BME280;58152;49.202;18.744;2022-07-06T03:46:19;97508.94;;;18.65;74.68
70589;BME280;58152;49.202;18.744;2022-07-06T03:48:45;97508.81;;;18.66;74.90
70589;BME280;58152;49.202;18.744;2022-07-06T03:51:10;97507.13;;;18.65;74.80
70589;BME280;58152;49.202;18.744;2022-07-06T03:53:37;97514.97;;;18.67;74.83
70589;BME280;58152;49.202;18.744;2022-07-06T03:56:08;97500.00;;;18.66;74.85
70589;BME280;58152;49.202;18.744;2022-07-06T03:58:51;97498.19;;;18.66;74.97
70589;BME280;58152;49.202;18.744;2022-07-06T04:01:17;97500.84;;;18.66;75.22
70589;BME280;58152;49.202;18.744;2022-07-06T04:03:42;97508.69;;;18.68;75.03
70589;BME280;58152;49.202;18.744;2022-07-06T04:06:09;97516.78;;;18.66;75.06
70589;BME280;58152;49.202;18.744;2022-07-06T04:08:38;97507.13;;;18.65;75.42
70589;BME280;58152;49.202;18.744;2022-07-06T04:11:03;97516.59;;;18.69;75.38
70589;BME280;58152;49.202;18.744;2022-07-06T04:13:29;97511.28;;;18.69;75.44
70589;BME280;58152;49.202;18.744;2022-07-06T04:15:54;97509.22;;;18.73;75.46
70589;BME280;58152;49.202;18.744;2022-07-06T04:18:20;97510.94;;;18.74;75.33
70589;BME280;58152;49.202;18.744;2022-07-06T04:20:46;97513.59;;;18.74;75.36
70589;BME280;58152;49.202;18.744;2022-07-06T04:23:11;97513.47;;;18.75;75.31
70589;BME280;58152;49.202;18.744;2022-07-06T04:25:37;97512.63;;;18.75;75.06
70589;BME280;58152;49.202;18.744;2022-07-06T04:28:03;97512.63;;;18.75;75.17
70589;BME280;58152;49.202;18.744;2022-07-06T04:30:29;97508.28;;;18.74;74.98
70589;BME280;58152;49.202;18.744;2022-07-06T04:32:54;97513.81;;;18.71;74.93
70589;BME280;58152;49.202;18.744;2022-07-06T04:35:20;97512.19;;;18.68;74.89
70589;BME280;58152;49.202;18.744;2022-07-06T04:37:46;97526.13;;;18.72;74.64
70589;BME280;58152;49.202;18.744;2022-07-06T04:40:12;97532.53;;;18.69;74.71
70589;BME280;58152;49.202;18.744;2022-07-06T04:42:38;97526.34;;;18.69;74.62
70589;BME280;58152;49.202;18.744;2022-07-06T04:45:04;97522.94;;;18.67;74.32
70589;BME280;58152;49.202;18.744;2022-07-06T04:47:32;97519.66;;;18.63;74.12
70589;BME280;58152;49.202;18.744;2022-07-06T04:49:58;97519.78;;;18.62;73.93
70589;BME280;58152;49.202;18.744;2022-07-06T04:52:23;97517.34;;;18.59;74.06
70589;BME280;58152;49.202;18.744;2022-07-06T04:54:49;97523.84;;;18.54;73.83
70589;BME280;58152;49.202;18.744;2022-07-06T04:57:14;97522.03;;;18.55;74.07
70589;BME280;58152;49.202;18.744;2022-07-06T04:59:40;97529.91;;;18.57;73.76
70589;BME280;58152;49.202;18.744;2022-07-06T05:02:06;97529.16;;;18.54;73.58
70589;BME280;58152;49.202;18.744;2022-07-06T05:04:31;97530.13;;;18.53;73.64
70589;BME280;58152;49.202;18.744;2022-07-06T05:06:57;97532.78;;;18.53;73.51
70589;BME280;58152;49.202;18.744;2022-07-06T05:09:22;97536.41;;;18.52;73.39
70589;BME280;58152;49.202;18.744;2022-07-06T05:11:48;97541.59;;;18.54;73.30
70589;BME280;58152;49.202;18.744;2022-07-06T05:14:13;97543.41;;;18.53;72.97
70589;BME280;58152;49.202;18.744;2022-07-06T05:16:39;97535.44;;;18.53;73.22
70589;BME280;58152;49.202;18.744;2022-07-06T05:19:04;97535.44;;;18.53;72.86
70589;BME280;58152;49.202;18.744;2022-07-06T05:21:30;97536.28;;;18.54;72.80
70589;BME280;58152;49.202;18.744;2022-07-06T05:23:55;97534.59;;;18.53;72.63
70589;BME280;58152;49.202;18.744;2022-07-06T05:26:21;97544.03;;;18.57;72.54
70589;BME280;58152;49.202;18.744;2022-07-06T05:28:46;97541.50;;;18.56;72.31
70589;BME280;58152;49.202;18.744;2022-07-06T05:31:12;97532.91;;;18.52;71.87
70589;BME280;58152;49.202;18.744;2022-07-06T05:33:37;97530.34;;;18.50;71.97
70589;BME280;58152;49.202;18.744;2022-07-06T05:36:03;97529.16;;;18.54;71.61
70589;BME280;58152;49.202;18.744;2022-07-06T05:38:29;97527.59;;;18.52;71.64
70589;BME280;58152;49.202;18.744;2022-07-06T05:40:54;97531.94;;;18.53;71.42
70589;BME280;58152;49.202;18.744;2022-07-06T05:43:20;97533.13;;;18.49;71.60
70589;BME280;58152;49.202;18.744;2022-07-06T05:53:20;97529.28;;;18.53;71.21
70589;BME280;58152;49.202;18.744;2022-07-06T06:47:51;97559.16;;;18.68;68.20
70589;BME280;58152;49.202;18.744;2022-07-06T06:50:55;97555.03;;;18.64;67.80
70589;BME280;58152;49.202;18.744;2022-07-06T07:04:26;97569.34;;;18.98;67.87
70589;BME280;58152;49.202;18.744;2022-07-06T07:17:16;97594.31;;;19.30;67.02
70589;BME280;58152;49.202;18.744;2022-07-06T07:19:44;97582.22;;;19.26;67.28
70589;BME280;58152;49.202;18.744;2022-07-06T07:22:24;97579.69;;;19.25;66.72
70589;BME280;58152;49.202;18.744;2022-07-06T07:24:50;97581.75;;;19.21;66.72
70589;BME280;58152;49.202;18.744;2022-07-06T07:27:15;97585.13;;;19.23;66.78
70589;BME280;58152;49.202;18.744;2022-07-06T07:36:34;97593.72;;;19.27;66.48
70589;BME280;58152;49.202;18.744;2022-07-06T07:46:47;97592.75;;;19.28;65.40
70589;BME280;58152;49.202;18.744;2022-07-06T07:53:55;97583.06;;;19.27;65.42
70589;BME280;58152;49.202;18.744;2022-07-06T07:56:27;97600.63;;;19.29;64.84
70589;BME280;58152;49.202;18.744;2022-07-06T07:58:52;97605.59;;;19.34;64.73
70589;BME280;58152;49.202;18.744;2022-07-06T08:01:23;97605.34;;;19.37;64.57
70589;BME280;58152;49.202;18.744;2022-07-06T08:03:49;97604.84;;;19.32;64.99
70589;BME280;58152;49.202;18.744;2022-07-06T08:06:14;97610.44;;;19.40;64.76
70589;BME280;58152;49.202;18.744;2022-07-06T08:09:06;97609.72;;;19.49;63.92
70589;BME280;58152;49.202;18.744;2022-07-06T08:18:41;97605.50;;;19.58;63.11
70589;BME280;58152;49.202;18.744;2022-07-06T08:21:39;97598.03;;;19.63;62.48
70589;BME280;58152;49.202;18.744;2022-07-06T08:27:11;97621.28;;;19.72;62.57
70589;BME280;58152;49.202;18.744;2022-07-06T08:29:47;97623.09;;;19.72;62.33
70589;BME280;58152;49.202;18.744;2022-07-06T08:32:12;97616.56;;;19.76;61.96
70589;BME280;58152;49.202;18.744;2022-07-06T08:34:38;97621.53;;;19.80;62.12
70589;BME280;58152;49.202;18.744;2022-07-06T08:37:03;97633.00;;;19.92;62.05
70589;BME280;58152;49.202;18.744;2022-07-06T08:39:29;97622.72;;;19.99;61.83
70589;BME280;58152;49.202;18.744;2022-07-06T08:41:59;97633.63;;;20.07;61.88
70589;BME280;58152;49.202;18.744;2022-07-06T08:44:36;97628.88;;;20.11;61.94
70589;BME280;58152;49.202;18.744;2022-07-06T08:47:05;97638.94;;;20.18;61.63
70589;BME280;58152;49.202;18.744;2022-07-06T08:49:33;97628.16;;;20.20;61.32
70589;BME280;58152;49.202;18.744;2022-07-06T08:52:00;97627.53;;;20.27;61.01
70589;BME280;58152;49.202;18.744;2022-07-06T08:58:26;97639.16;;;20.15;61.05
70589;BME280;58152;49.202;18.744;2022-07-06T09:00:55;97632.03;;;20.04;61.97
70589;BME280;58152;49.202;18.744;2022-07-06T09:03:24;97640.16;;;20.03;61.69
70589;BME280;58152;49.202;18.744;2022-07-06T09:05:50;97644.03;;;19.99;61.68
70589;BME280;58152;49.202;18.744;2022-07-06T09:08:18;97630.72;;;19.99;61.73
70589;BME280;58152;49.202;18.744;2022-07-06T09:10:44;97641.50;;;20.09;61.36
70589;BME280;58152;49.202;18.744;2022-07-06T09:13:10;97644.97;;;20.20;61.42
70589;BME280;58152;49.202;18.744;2022-07-06T09:15:37;97639.78;;;20.30;61.12
70589;BME280;58152;49.202;18.744;2022-07-06T09:18:06;97644.25;;;20.52;61.01
70589;BME280;58152;49.202;18.744;2022-07-06T09:20:40;97636.97;;;20.54;61.13
70589;BME280;58152;49.202;18.744;2022-07-06T09:23:09;97632.03;;;20.49;60.69
70589;BME280;58152;49.202;18.744;2022-07-06T09:25:41;97646.06;;;20.51;60.45
70589;BME280;58152;49.202;18.744;2022-07-06T09:28:09;97641.94;;;20.47;60.89
70589;BME280;58152;49.202;18.744;2022-07-06T09:30:35;97630.56;;;20.45;60.16
70589;BME280;58152;49.202;18.744;2022-07-06T09:33:08;97636.13;;;20.53;60.25
70589;BME280;58152;49.202;18.744;2022-07-06T09:35:38;97643.75;;;20.58;60.22
70589;BME280;58152;49.202;18.744;2022-07-06T09:38:13;97644.34;;;20.62;60.31
70589;BME280;58152;49.202;18.744;2022-07-06T09:40:43;97650.88;;;20.69;60.11
70589;BME280;58152;49.202;18.744;2022-07-06T09:43:17;97650.63;;;20.72;59.95
70589;BME280;58152;49.202;18.744;2022-07-06T09:45:49;97645.88;;;20.75;59.75
70589;BME280;58152;49.202;18.744;2022-07-06T09:48:17;97637.25;;;20.83;59.94
70589;BME280;58152;49.202;18.744;2022-07-06T09:50:55;97653.69;;;20.99;59.25
70589;BME280;58152;49.202;18.744;2022-07-06T09:53:22;97657.81;;;21.03;59.14
70589;BME280;58152;49.202;18.744;2022-07-06T09:55:55;97666.38;;;21.07;59.09
70589;BME280;58152;49.202;18.744;2022-07-06T09:58:21;97664.31;;;21.11;58.31
70589;BME280;58152;49.202;18.744;2022-07-06T10:00:50;97669.53;;;21.12;58.28
70589;BME280;58152;49.202;18.744;2022-07-06T10:03:17;97668.78;;;21.10;58.18
70589;BME280;58152;49.202;18.744;2022-07-06T10:05:48;97678.69;;;20.98;57.71
70589;BME280;58152;49.202;18.744;2022-07-06T10:08:18;97689.44;;;20.97;58.28
70589;BME280;58152;49.202;18.744;2022-07-06T10:10:44;97686.09;;;20.84;58.13
70589;BME280;58152;49.202;18.744;2022-07-06T10:13:10;97686.75;;;20.76;58.24
70589;BME280;58152;49.202;18.744;2022-07-06T10:15:38;97702.38;;;20.69;58.32
70589;BME280;58152;49.202;18.744;2022-07-06T10:18:08;97706.00;;;20.68;58.62
70589;BME280;58152;49.202;18.744;2022-07-06T10:20:36;97710.03;;;20.63;58.84
70589;BME280;58152;49.202;18.744;2022-07-06T10:23:05;97704.31;;;20.56;58.51
70589;BME280;58152;49.202;18.744;2022-07-06T10:25:40;97720.78;;;20.61;58.51
70589;BME280;58152;49.202;18.744;2022-07-06T10:28:13;97709.78;;;20.54;58.34
70589;BME280;58152;49.202;18.744;2022-07-06T10:30:43;97721.78;;;20.60;58.07
70589;BME280;58152;49.202;18.744;2022-07-06T10:33:43;97721.16;;;20.56;58.33
70589;BME280;58152;49.202;18.744;2022-07-06T10:36:36;97733.88;;;20.64;57.42
70589;BME280;58152;49.202;18.744;2022-07-06T10:40:45;97711.59;;;20.65;57.09
70589;BME280;58152;49.202;18.744;2022-07-06T10:43:01;97718.38;;;20.69;57.30
70589;BME280;58152;49.202;18.744;2022-07-06T10:50:37;97723.19;;;20.87;56.50
70589;BME280;58152;49.202;18.744;2022-07-06T10:53:10;97726.84;;;20.86;55.80
70589;BME280;58152;49.202;18.744;2022-07-06T10:55:37;97713.59;;;20.84;56.05
70589;BME280;58152;49.202;18.744;2022-07-06T10:58:05;97729.72;;;20.94;56.15
70589;BME280;58152;49.202;18.744;2022-07-06T11:00:51;97729.34;;;20.98;55.41
70589;BME280;58152;49.202;18.744;2022-07-06T11:08:55;97729.47;;;20.97;55.26
70589;BME280;58152;49.202;18.744;2022-07-06T11:13:59;97737.56;;;21.06;54.95
70589;BME280;58152;49.202;18.744;2022-07-06T11:16:28;97728.72;;;21.06;55.40
70589;BME280;58152;49.202;18.744;2022-07-06T11:19:07;97724.31;;;21.16;54.74
70589;BME280;58152;49.202;18.744;2022-07-06T11:21:44;97717.75;;;21.20;54.22
70589;BME280;58152;49.202;18.744;2022-07-06T11:24:20;97711.78;;;21.28;54.33
70589;BME280;58152;49.202;18.744;2022-07-06T11:26:50;97695.28;;;21.34;54.31
70589;BME280;58152;49.202;18.744;2022-07-06T11:29:26;97695.63;;;21.41;54.59
70589;BME280;58152;49.202;18.744;2022-07-06T11:31:57;97694.25;;;21.46;54.42
70589;BME280;58152;49.202;18.744;2022-07-06T11:34:39;97690.50;;;21.49;54.19
70589;BME280;58152;49.202;18.744;2022-07-06T11:40:30;97699.63;;;21.67;53.46
70589;BME280;58152;49.202;18.744;2022-07-06T11:43:09;97686.34;;;21.77;52.96
70589;BME280;58152;49.202;18.744;2022-07-06T11:45:37;97691.28;;;21.81;53.34
70589;BME280;58152;49.202;18.744;2022-07-06T11:48:12;97694.69;;;21.93;52.93
70589;BME280;58152;49.202;18.744;2022-07-06T11:51:03;97692.63;;;21.97;52.67
70589;BME280;58152;49.202;18.744;2022-07-06T11:53:56;97690.09;;;21.95;52.66
70589;BME280;58152;49.202;18.744;2022-07-06T11:56:25;97690.34;;;21.92;53.78
70589;BME280;58152;49.202;18.744;2022-07-06T11:59:03;97674.94;;;22.05;51.77
70589;BME280;58152;49.202;18.744;2022-07-06T12:44:21;97653.72;;;24.56;45.01
70589;BME280;58152;49.202;18.744;2022-07-06T12:46:48;97648.25;;;24.48;44.60
70589;BME280;58152;49.202;18.744;2022-07-06T12:49:22;97655.84;;;24.98;43.36
70589;BME280;58152;49.202;18.744;2022-07-06T12:51:49;97654.91;;;25.43;42.75
70589;BME280;58152;49.202;18.744;2022-07-06T12:54:21;97652.16;;;25.52;42.40
70589;BME280;58152;49.202;18.744;2022-07-06T13:00:12;97635.47;;;26.19;40.81
70589;BME280;58152;49.202;18.744;2022-07-06T13:21:04;97637.34;;;27.19;36.06
70589;BME280;58152;49.202;18.744;2022-07-06T14:03:03;97590.53;;;27.20;36.23
70589;BME280;58152;49.202;18.744;2022-07-06T14:05:29;97581.63;;;27.36;38.42
70589;BME280;58152;49.202;18.744;2022-07-06T14:18:08;97599.09;;;25.98;39.64
70589;BME280;58152;49.202;18.744;2022-07-06T14:21:02;97594.94;;;25.78;39.51
70589;BME280;58152;49.202;18.744;2022-07-06T14:27:21;97585.25;;;25.41;40.05
70589;BME280;58152;49.202;18.744;2022-07-06T14:30:27;97595.81;;;25.34;40.33
70589;BME280;58152;49.202;18.744;2022-07-06T14:33:03;97593.22;;;25.25;41.94
70589;BME280;58152;49.202;18.744;2022-07-06T14:35:57;97590.59;;;25.15;39.75
70589;BME280;58152;49.202;18.744;2022-07-06T14:39:03;97592.00;;;25.89;38.32
70589;BME280;58152;49.202;18.744;2022-07-06T14:41:28;97586.56;;;26.49;39.23
70589;BME280;58152;49.202;18.744;2022-07-06T14:43:55;97578.06;;;26.95;38.64
70589;BME280;58152;49.202;18.744;2022-07-06T14:46:21;97572.72;;;27.27;37.98
70589;BME280;58152;49.202;18.744;2022-07-06T14:48:46;97572.84;;;27.58;36.25
70589;BME280;58152;49.202;18.744;2022-07-06T14:51:12;97579.91;;;27.76;36.09
70589;BME280;58152;49.202;18.744;2022-07-06T14:53:37;97569.09;;;27.92;35.48
70589;BME280;58152;49.202;18.744;2022-07-06T14:56:03;97568.34;;;28.06;35.22
70589;BME280;58152;49.202;18.744;2022-07-06T14:58:29;97581.63;;;28.16;35.13
70589;BME280;58152;49.202;18.744;2022-07-06T15:00:57;97566.78;;;28.20;34.24
70589;BME280;58152;49.202;18.744;2022-07-06T15:03:45;97573.13;;;27.96;34.68
70589;BME280;58152;49.202;18.744;2022-07-06T15:06:10;97578.91;;;27.44;36.00
70589;BME280;58152;49.202;18.744;2022-07-06T15:08:36;97573.84;;;27.82;36.20
70589;BME280;58152;49.202;18.744;2022-07-06T15:11:07;97578.56;;;27.64;36.65
70589;BME280;58152;49.202;18.744;2022-07-06T15:13:32;97567.66;;;27.32;37.32
70589;BME280;58152;49.202;18.744;2022-07-06T15:15:58;97571.34;;;27.15;37.83
70589;BME280;58152;49.202;18.744;2022-07-06T15:18:44;97565.94;;;27.40;37.59
70589;BME280;58152;49.202;18.744;2022-07-06T15:21:41;97569.16;;;27.51;36.83
70589;BME280;58152;49.202;18.744;2022-07-06T15:24:11;97563.25;;;27.48;38.44
70589;BME280;58152;49.202;18.744;2022-07-06T15:26:37;97573.88;;;27.33;38.43
70589;BME280;58152;49.202;18.744;2022-07-06T15:29:03;97566.44;;;27.02;38.95
70589;BME280;58152;49.202;18.744;2022-07-06T15:31:28;97563.41;;;26.97;38.70
70589;BME280;58152;49.202;18.744;2022-07-06T15:33:57;97569.66;;;26.90;38.77
70589;BME280;58152;49.202;18.744;2022-07-06T15:36:31;97553.81;;;26.78;38.80
70589;BME280;58152;49.202;18.744;2022-07-06T15:38:57;97565.91;;;26.58;38.74
70589;BME280;58152;49.202;18.744;2022-07-06T15:41:23;97571.50;;;26.39;38.66
70589;BME280;58152;49.202;18.744;2022-07-06T15:43:48;97570.47;;;26.23;38.58
70589;BME280;58152;49.202;18.744;2022-07-06T15:46:14;97561.84;;;26.12;38.59
70589;BME280;58152;49.202;18.744;2022-07-06T15:48:48;97555.25;;;26.06;38.15
70589;BME280;58152;49.202;18.744;2022-07-06T15:51:13;97564.63;;;25.94;38.39
70589;BME280;58152;49.202;18.744;2022-07-06T15:53:39;97563.22;;;25.81;38.85
70589;BME280;58152;49.202;18.744;2022-07-06T15:56:05;97566.94;;;25.89;38.61
70589;BME280;58152;49.202;18.744;2022-07-06T15:58:30;97566.44;;;25.93;38.36
70589;BME280;58152;49.202;18.744;2022-07-06T16:00:56;97555.22;;;25.98;38.47
70589;BME280;58152;49.202;18.744;2022-07-06T16:03:23;97554.91;;;26.01;38.59
70589;BME280;58152;49.202;18.744;2022-07-06T16:05:52;97561.81;;;26.03;38.50
70589;BME280;58152;49.202;18.744;2022-07-06T16:08:23;97553.06;;;26.01;38.56
70589;BME280;58152;49.202;18.744;2022-07-06T16:11:06;97561.66;;;26.05;38.85
70589;BME280;58152;49.202;18.744;2022-07-06T16:13:34;97560.63;;;26.06;38.85
70589;BME280;58152;49.202;18.744;2022-07-06T16:16:07;97556.94;;;26.07;38.64
70589;BME280;58152;49.202;18.744;2022-07-06T16:18:43;97554.91;;;26.01;38.59
70589;BME280;58152;49.202;18.744;2022-07-06T16:21:09;97550.72;;;25.98;37.55
70589;BME280;58152;49.202;18.744;2022-07-06T16:23:38;97551.69;;;25.89;36.44
70589;BME280;58152;49.202;18.744;2022-07-06T16:26:06;97560.72;;;25.88;36.18
70589;BME280;58152;49.202;18.744;2022-07-06T16:28:35;97547.41;;;25.78;36.63
70589;BME280;58152;49.202;18.744;2022-07-06T16:31:01;97563.84;;;25.75;36.88
70589;BME280;58152;49.202;18.744;2022-07-06T16:33:38;97563.44;;;25.70;37.34
70589;BME280;58152;49.202;18.744;2022-07-06T16:36:05;97560.25;;;25.67;37.98
70589;BME280;58152;49.202;18.744;2022-07-06T16:38:31;97559.34;;;25.84;37.34
70589;BME280;58152;49.202;18.744;2022-07-06T16:40:56;97561.06;;;25.85;37.04
70589;BME280;58152;49.202;18.744;2022-07-06T16:43:31;97567.06;;;25.79;37.30
70589;BME280;58152;49.202;18.744;2022-07-06T16:46:03;97564.44;;;25.69;37.60
70589;BME280;58152;49.202;18.744;2022-07-06T16:48:30;97562.66;;;25.52;37.82
70589;BME280;58152;49.202;18.744;2022-07-06T16:51:07;97574.22;;;25.44;38.24
70589;BME280;58152;49.202;18.744;2022-07-06T16:53:52;97570.78;;;25.34;37.97
70589;BME280;58152;49.202;18.744;2022-07-06T16:56:21;97581.00;;;25.30;37.64
70589;BME280;58152;49.202;18.744;2022-07-06T16:58:49;97577.69;;;25.19;37.45
70589;BME280;58152;49.202;18.744;2022-07-06T17:01:35;97573.25;;;25.09;36.76
70589;BME280;58152;49.202;18.744;2022-07-06T17:04:13;97574.03;;;25.02;36.96
70589;BME280;58152;49.202;18.744;2022-07-06T17:06:41;97581.53;;;24.98;38.01
70589;BME280;58152;49.202;18.744;2022-07-06T17:09:22;97571.72;;;24.89;38.25
70589;BME280;58152;49.202;18.744;2022-07-06T17:11:47;97579.53;;;24.82;38.04